Time;durP1;ratioP1;P1;durP2;ratioP2;P2;SDS_P1;SDS_P2;PMS_P1;PMS_P2;Temp;Humidity;BMP_temperature;BMP_pressure;BME280_temperature;BME280_humidity;BME280_pressure;Samples;Min_cycle;Max_cycle;Signal;HPM_P1;HPM_P2
2022/08/08 00:02:21;;;;;;;0.60;0.10;;;27.60;31.20;;;;;;5054700;28;20049;-62
2022/08/08 00:04:59;;;;;;;1.58;0.30;;;27.60;31.30;;;;;;5051085;28;20737;-62
2022/08/08 00:07:34;;;;;;;3.30;0.10;;;27.50;31.30;;;;;;5070612;28;20103;-60
2022/08/08 00:10:08;;;;;;;2.27;0.30;;;27.50;31.50;;;;;;5065648;28;20044;-62
2022/08/08 00:12:44;;;;;;;1.95;0.20;;;27.50;31.60;;;;;;5065792;28;20060;-63
2022/08/08 00:15:15;;;;;;;1.17;0.68;;;27.40;31.60;;;;;;5058993;28;20095;-63
2022/08/08 00:17:48;;;;;;;0.43;0.10;;;27.40;31.70;;;;;;5065409;28;20058;-62
2022/08/08 00:20:20;;;;;;;0.55;0.40;;;27.40;31.80;;;;;;5064855;28;20563;-63
2022/08/08 00:22:51;;;;;;;1.80;0.35;;;27.40;32.00;;;;;;5069521;28;20627;-62
2022/08/08 00:25:22;;;;;;;1.58;0.20;;;27.30;32.00;;;;;;5087889;28;20135;-63
2022/08/08 00:27:54;;;;;;;2.10;0.10;;;27.30;32.10;;;;;;5088016;28;20047;-63
2022/08/08 00:30:24;;;;;;;0.80;0.20;;;27.30;32.20;;;;;;5088002;28;20046;-62
2022/08/08 00:32:56;;;;;;;0.85;0.20;;;27.20;32.20;;;;;;5088731;28;20089;-63
2022/08/08 00:35:31;;;;;;;0.90;0.20;;;27.20;32.30;;;;;;5089702;28;20607;-63
2022/08/08 00:38:13;;;;;;;0.50;0.10;;;27.20;32.40;;;;;;5087515;28;20094;-61
2022/08/08 00:40:58;;;;;;;0.20;0.10;;;27.10;32.40;;;;;;5088117;28;20066;-62
2022/08/08 00:44:09;;;;;;;1.00;0.10;;;27.20;32.60;;;;;;5087674;28;20043;-62
2022/08/08 00:47:18;;;;;;;2.17;0.10;;;27.10;32.60;;;;;;5002220;28;20540;-59
2022/08/08 00:50:14;;;;;;;0.60;0.30;;;27.10;32.70;;;;;;5012360;28;20068;-61
2022/08/08 00:52:52;;;;;;;0.30;0.20;;;27.00;32.80;;;;;;5005460;28;20444;-61
2022/08/08 00:55:50;;;;;;;0.65;0.10;;;26.90;32.90;;;;;;5004755;28;20050;-61
2022/08/08 00:58:52;;;;;;;2.58;0.10;;;27.00;33.10;;;;;;5023698;28;20056;-60
2022/08/08 01:01:26;;;;;;;0.85;0.85;;;26.90;33.70;;;;;;5024489;28;20053;-66
2022/08/08 01:04:46;;;;;;;2.92;0.10;;;26.80;33.20;;;;;;5004688;28;20133;-59
2022/08/08 01:07:44;;;;;;;0.20;0.10;;;26.80;33.20;;;;;;5008857;28;20614;-62
2022/08/08 01:10:43;;;;;;;1.00;0.10;;;26.80;33.30;;;;;;5008327;28;20557;-62
2022/08/08 01:13:46;;;;;;;0.90;0.10;;;26.80;33.40;;;;;;5016326;28;20041;-61
2022/08/08 01:16:44;;;;;;;1.65;0.20;;;26.70;33.40;;;;;;5008043;28;20073;-62
2022/08/08 01:19:46;;;;;;;2.65;0.10;;;26.70;33.60;;;;;;5007780;28;20046;-62
2022/08/08 01:23:14;;;;;;;0.70;0.30;;;26.70;33.60;;;;;;5098756;28;20039;-62
2022/08/08 01:28:59;;;;;;;0.47;0.10;;;26.60;33.70;;;;;;5105080;27;21082;-61
2022/08/08 01:32:00;;;;;;;0.95;0.28;;;26.50;33.80;;;;;;5035323;28;20215;-62
2022/08/08 01:34:52;;;;;;;0.55;0.20;;;26.50;33.90;;;;;;5028719;28;20053;-60
2022/08/08 01:37:45;;;;;;;1.55;0.10;;;26.50;34.00;;;;;;4966596;28;20419;-62
2022/08/08 01:40:23;;;;;;;0.13;0.13;;;26.40;34.10;;;;;;4954227;28;20137;-62
2022/08/08 01:42:58;;;;;;;6.93;0.20;;;26.40;34.10;;;;;;4968351;28;20046;-62
2022/08/08 01:45:44;;;;;;;1.33;0.10;;;26.40;34.20;;;;;;4963393;28;20090;-61
2022/08/08 01:48:18;;;;;;;2.38;1.45;;;26.40;34.20;;;;;;4962313;28;20070;-60
2022/08/08 01:51:00;;;;;;;0.85;0.45;;;26.30;34.30;;;;;;4961939;28;20077;-62
2022/08/08 01:53:43;;;;;;;0.22;0.10;;;26.30;34.40;;;;;;4960665;28;20056;-62
2022/08/08 01:56:24;;;;;;;3.58;0.20;;;26.30;34.40;;;;;;4982257;28;20614;-62
2022/08/08 01:59:08;;;;;;;0.40;0.10;;;26.20;34.40;;;;;;4951657;28;20042;-61
2022/08/08 02:02:01;;;;;;;0.43;0.10;;;26.20;34.50;;;;;;4966109;28;20503;-63
2022/08/08 02:04:37;;;;;;;0.20;0.20;;;26.20;34.50;;;;;;4954296;28;20154;-62
2022/08/08 02:07:13;;;;;;;0.93;0.15;;;26.20;34.60;;;;;;4966181;28;20054;-63
2022/08/08 02:10:14;;;;;;;0.60;0.10;;;26.20;34.70;;;;;;5017759;28;20061;-63
2022/08/08 02:12:50;;;;;;;0.35;0.10;;;26.20;34.70;;;;;;5020166;28;20047;-62
2022/08/08 02:15:29;;;;;;;1.95;0.30;;;26.10;34.80;;;;;;5093683;28;20044;-63
2022/08/08 02:18:01;;;;;;;0.55;0.20;;;26.10;34.90;;;;;;5090296;28;20047;-61
2022/08/08 02:20:33;;;;;;;1.08;0.20;;;26.10;35.00;;;;;;5101273;28;20062;-62
2022/08/08 02:23:09;;;;;;;3.72;0.20;;;26.00;34.90;;;;;;5104346;28;20415;-62
2022/08/08 02:25:40;;;;;;;;;;;26.00;35.00;;;;;;5104693;28;20112;-60
2022/08/08 02:28:15;;;;;;;6.32;0.30;;;25.90;34.90;;;;;;5102477;28;19935;-62
2022/08/08 02:30:56;;;;;;;4.13;0.30;;;25.90;35.10;;;;;;5097788;28;20032;-50
2022/08/08 02:33:44;;;;;;;0.30;0.20;;;25.90;35.10;;;;;;5102472;28;20412;-61
2022/08/08 02:36:24;;;;;;;0.65;0.13;;;25.90;35.30;;;;;;5103224;28;20377;-62
2022/08/08 02:39:02;;;;;;;0.30;0.10;;;25.90;35.40;;;;;;5095624;28;20048;-61
2022/08/08 02:41:49;;;;;;;0.95;0.52;;;25.90;35.50;;;;;;5089017;28;20044;-61
2022/08/08 02:44:45;;;;;;;0.52;0.32;;;25.90;35.60;;;;;;5089425;28;20063;-58
2022/08/08 02:47:53;;;;;;;1.70;0.20;;;25.80;35.60;;;;;;5090670;28;20052;-61
2022/08/08 02:51:17;;;;;;;3.67;0.25;;;25.80;35.70;;;;;;5088742;28;20052;-58
2022/08/08 02:54:07;;;;;;;2.53;0.20;;;25.80;35.70;;;;;;5105970;28;20028;-61
2022/08/08 02:57:08;;;;;;;0.20;0.10;;;25.70;35.80;;;;;;5088894;28;20078;-62
2022/08/08 03:00:14;;;;;;;0.20;0.10;;;25.70;35.90;;;;;;5089175;28;20068;-62
2022/08/08 03:03:36;;;;;;;0.32;0.32;;;25.60;35.90;;;;;;5011212;28;20529;-61
2022/08/08 03:06:42;;;;;;;0.30;0.30;;;25.60;36.00;;;;;;4991501;28;20045;-57
2022/08/08 03:12:52;;;;;;;1.10;0.57;;;25.60;36.00;;;;;;5085901;27;20534;-60
2022/08/08 03:15:49;;;;;;;1.58;0.20;;;25.60;36.10;;;;;;5063208;28;20045;-60
2022/08/08 03:18:21;;;;;;;1.83;0.10;;;25.50;36.20;;;;;;5060354;28;20075;-58
2022/08/08 03:20:49;;;;;;;2.17;0.10;;;25.50;36.20;;;;;;5063222;28;20112;-60
2022/08/08 03:23:22;;;;;;;0.82;0.10;;;25.50;36.20;;;;;;5067294;28;20501;-61
2022/08/08 03:25:50;;;;;;;1.35;0.10;;;25.50;36.30;;;;;;5083712;28;20531;-60
2022/08/08 03:28:21;;;;;;;2.92;0.30;;;25.50;36.30;;;;;;5079157;28;20044;-61
2022/08/08 03:30:50;;;;;;;1.13;0.85;;;25.50;36.30;;;;;;5077139;28;20045;-62
2022/08/08 03:33:17;;;;;;;0.55;0.50;;;25.40;36.90;;;;;;5063458;28;20045;-61
2022/08/08 03:35:48;;;;;;;3.83;0.15;;;25.40;36.40;;;;;;5064589;28;20041;-62
2022/08/08 03:38:16;;;;;;;0.50;0.50;;;25.40;37.00;;;;;;5063169;28;20052;-62
2022/08/08 03:40:51;;;;;;;0.75;0.10;;;25.40;36.50;;;;;;5062928;28;20080;-59
2022/08/08 03:43:19;;;;;;;1.17;0.10;;;25.40;36.50;;;;;;5076106;28;20045;-62
2022/08/08 03:45:48;;;;;;;1.00;0.10;;;25.40;36.60;;;;;;5075020;28;20123;-57
2022/08/08 03:48:15;;;;;;;0.55;0.20;;;25.30;36.50;;;;;;5080896;28;20041;-59
2022/08/08 03:50:47;;;;;;;5.90;0.40;;;25.30;36.70;;;;;;5063790;28;20070;-60
2022/08/08 03:53:20;;;;;;;3.40;0.20;;;25.30;36.70;;;;;;5073972;28;20357;-61
2022/08/08 03:55:50;;;;;;;0.40;0.15;;;25.30;36.80;;;;;;5062599;28;20539;-59
2022/08/08 03:58:20;;;;;;;0.90;0.28;;;25.30;37.40;;;;;;5076901;28;20125;-59
2022/08/08 04:00:52;;;;;;;0.30;0.10;;;25.30;36.80;;;;;;5071446;28;20489;-63
2022/08/08 04:03:21;;;;;;;0.20;0.20;;;25.30;36.90;;;;;;5062627;28;20036;-60
2022/08/08 04:05:48;;;;;;;0.75;0.13;;;25.20;36.90;;;;;;5062314;28;20485;-62
2022/08/08 04:08:17;;;;;;;2.58;0.32;;;25.20;36.90;;;;;;5064481;28;20052;-62
2022/08/08 04:10:47;;;;;;;0.63;0.30;;;25.20;36.90;;;;;;5062352;28;20471;-63
2022/08/08 04:13:16;;;;;;;0.60;0.30;;;25.20;37.00;;;;;;5062494;28;20044;-60
2022/08/08 04:15:44;;;;;;;1.42;0.30;;;25.20;37.00;;;;;;5068696;28;20127;-62
2022/08/08 04:18:11;;;;;;;3.22;0.82;;;25.20;37.10;;;;;;5082922;28;20424;-62
2022/08/08 04:20:38;;;;;;;2.10;0.20;;;25.20;37.10;;;;;;5070171;28;20052;-62
2022/08/08 04:23:06;;;;;;;0.63;0.55;;;25.10;37.70;;;;;;5051105;28;20088;-62
2022/08/08 04:25:33;;;;;;;0.77;0.20;;;25.10;37.10;;;;;;5049114;28;20055;-61
2022/08/08 04:28:01;;;;;;;4.88;0.40;;;25.10;37.20;;;;;;5050658;28;20425;-62
2022/08/08 04:30:29;;;;;;;5.63;0.30;;;25.10;37.20;;;;;;5048923;28;20112;-59
2022/08/08 04:32:57;;;;;;;2.47;0.20;;;25.10;37.30;;;;;;5050371;28;20509;-61
2022/08/08 04:35:30;;;;;;;1.55;0.47;;;25.00;37.30;;;;;;5046359;28;20048;-62
2022/08/08 04:37:57;;;;;;;0.90;0.20;;;25.00;37.40;;;;;;5037768;28;20049;-61
2022/08/08 04:40:31;;;;;;;3.83;0.35;;;25.00;37.40;;;;;;5028929;28;20041;-61
2022/08/08 04:42:59;;;;;;;0.40;0.30;;;24.90;37.40;;;;;;5035738;28;20045;-62
2022/08/08 04:45:32;;;;;;;0.40;0.35;;;25.00;37.50;;;;;;5048654;28;20060;-61
2022/08/08 04:48:01;;;;;;;0.88;0.50;;;24.90;37.50;;;;;;5048672;28;20456;-62
2022/08/08 04:50:32;;;;;;;1.98;0.30;;;24.90;37.60;;;;;;5048593;28;20195;-62
2022/08/08 04:52:59;;;;;;;3.53;0.30;;;24.90;37.60;;;;;;5054621;28;20064;-60
2022/08/08 04:55:27;;;;;;;2.42;0.38;;;24.90;37.60;;;;;;5038541;28;20052;-61
2022/08/08 04:57:54;;;;;;;0.63;0.20;;;24.90;37.70;;;;;;5047701;28;20062;-61
2022/08/08 05:00:23;;;;;;;0.82;0.30;;;24.90;37.80;;;;;;5050000;28;20048;-61
2022/08/08 05:02:52;;;;;;;1.10;0.40;;;24.80;37.80;;;;;;5048425;28;20041;-61
2022/08/08 05:05:20;;;;;;;4.22;0.43;;;24.80;37.90;;;;;;5048613;28;20041;-61
2022/08/08 05:07:48;;;;;;;1.95;0.40;;;24.80;37.90;;;;;;5049331;28;20045;-61
2022/08/08 05:10:16;;;;;;;2.53;0.20;;;24.80;38.00;;;;;;5049482;28;20049;-60
2022/08/08 05:12:43;;;;;;;3.85;0.65;;;24.80;38.00;;;;;;5048315;28;20056;-61
2022/08/08 05:15:11;;;;;;;1.80;0.50;;;24.80;38.00;;;;;;5047761;28;20048;-59
2022/08/08 05:17:38;;;;;;;2.88;0.40;;;24.80;38.00;;;;;;5048801;28;20069;-61
2022/08/08 05:20:08;;;;;;;8.18;0.40;;;24.80;38.10;;;;;;5031714;28;20049;-61
2022/08/08 05:22:40;;;;;;;1.85;0.20;;;24.70;38.10;;;;;;5066747;28;20105;-61
2022/08/08 05:25:08;;;;;;;3.85;0.40;;;24.70;38.10;;;;;;5047768;28;20036;-65
2022/08/08 05:27:35;;;;;;;0.47;0.20;;;24.70;38.20;;;;;;5060390;28;20127;-57
2022/08/08 05:30:03;;;;;;;2.75;0.38;;;24.70;38.20;;;;;;5047476;28;20566;-62
2022/08/08 05:32:40;;;;;;;4.45;0.45;;;24.70;38.30;;;;;;5049487;28;20037;-61
2022/08/08 05:35:13;;;;;;;0.73;0.65;;;24.60;38.30;;;;;;5046087;28;20037;-59
2022/08/08 05:37:48;;;;;;;4.13;0.47;;;24.70;38.40;;;;;;5027744;28;20536;-61
2022/08/08 05:40:17;;;;;;;5.95;0.22;;;24.60;38.40;;;;;;5033376;28;20513;-60
2022/08/08 05:42:50;;;;;;;4.40;0.63;;;24.60;38.40;;;;;;5047249;28;20110;-62
2022/08/08 05:45:17;;;;;;;1.08;0.32;;;24.60;38.50;;;;;;5048827;28;20579;-61
2022/08/08 05:47:45;;;;;;;1.45;0.20;;;24.60;38.50;;;;;;5047027;28;20052;-61
2022/08/08 05:50:16;;;;;;;1.58;0.63;;;24.60;38.50;;;;;;5047043;28;20098;-62
2022/08/08 05:52:44;;;;;;;4.07;1.17;;;24.60;38.60;;;;;;5046711;28;20060;-63
2022/08/08 05:55:12;;;;;;;2.40;0.82;;;24.50;38.50;;;;;;5047415;28;20040;-62
2022/08/08 05:57:45;;;;;;;0.40;0.40;;;24.60;38.60;;;;;;5053923;28;20097;-60
2022/08/08 06:00:13;;;;;;;0.73;0.30;;;24.60;38.70;;;;;;5066888;28;20037;-60
2022/08/08 06:03:12;;;;;;;1.30;0.32;;;24.50;39.20;;;;;;5046495;28;20540;-62
2022/08/08 06:05:51;;;;;;;1.27;0.60;;;24.50;38.70;;;;;;5045701;28;20053;-62
2022/08/08 06:08:24;;;;;;;4.50;0.43;;;24.50;38.80;;;;;;5061657;28;20041;-62
2022/08/08 06:10:54;;;;;;;6.20;0.38;;;24.50;38.80;;;;;;5046653;28;20044;-62
2022/08/08 06:13:21;;;;;;;9.18;0.63;;;24.50;38.80;;;;;;5048246;28;20118;-63
2022/08/08 06:15:50;;;;;;;1.52;1.20;;;24.50;38.90;;;;;;5045157;28;20041;-62
2022/08/08 06:18:22;;;;;;;6.75;0.80;;;24.50;38.90;;;;;;5046978;28;20072;-62
2022/08/08 06:20:52;;;;;;;1.52;0.40;;;24.50;38.90;;;;;;5046136;28;20564;-62
2022/08/08 06:23:19;;;;;;;1.55;0.55;;;24.50;38.90;;;;;;5046530;28;20041;-64
2022/08/08 06:25:54;;;;;;;6.07;0.50;;;24.50;39.00;;;;;;5046071;28;20664;-61
2022/08/08 06:28:30;;;;;;;2.33;0.40;;;24.50;39.00;;;;;;5032334;28;20048;-61
2022/08/08 06:30:59;;;;;;;;;;;24.50;39.00;;;;;;5046415;28;20037;-61
2022/08/08 06:33:35;;;;;;;4.13;0.77;;;24.40;38.80;;;;;;5046243;28;19928;-61
2022/08/08 06:36:06;;;;;;;4.03;0.70;;;24.40;39.00;;;;;;5046975;28;20048;-58
2022/08/08 06:38:37;;;;;;;0.65;0.32;;;24.50;39.10;;;;;;5043555;28;20545;-61
2022/08/08 06:41:07;;;;;;;1.83;0.50;;;24.50;39.10;;;;;;5046520;28;20051;-61
2022/08/08 06:43:36;;;;;;;4.30;0.55;;;24.40;39.00;;;;;;5046073;28;20052;-57
2022/08/08 06:46:08;;;;;;;1.60;0.40;;;24.50;39.10;;;;;;5043313;28;20041;-60
2022/08/08 06:48:36;;;;;;;2.05;0.22;;;24.50;39.10;;;;;;5048588;28;20529;-60
2022/08/08 06:51:05;;;;;;;2.75;0.73;;;24.50;39.10;;;;;;5048881;28;20554;-63
2022/08/08 06:53:32;;;;;;;0.50;0.40;;;24.50;39.20;;;;;;5047957;28;20041;-60
2022/08/08 06:56:00;;;;;;;1.90;0.57;;;24.50;39.20;;;;;;5046345;28;20052;-61
2022/08/08 06:58:27;;;;;;;2.78;1.05;;;24.50;39.20;;;;;;5030091;28;20080;-58
2022/08/08 07:00:58;;;;;;;7.22;0.73;;;24.50;39.20;;;;;;5046430;28;20267;-62
2022/08/08 07:03:40;;;;;;;1.27;0.60;;;24.60;39.30;;;;;;5042444;28;20041;-63
2022/08/08 07:06:10;;;;;;;4.78;0.65;;;24.60;39.20;;;;;;5030922;28;20049;-62
2022/08/08 07:08:38;;;;;;;2.05;0.20;;;24.60;39.20;;;;;;5045964;28;20041;-60
2022/08/08 07:11:07;;;;;;;4.07;0.50;;;24.60;39.30;;;;;;5046983;28;20049;-62
2022/08/08 07:13:39;;;;;;;4.22;0.68;;;24.60;39.20;;;;;;5046202;28;20110;-62
2022/08/08 07:16:14;;;;;;;1.30;0.30;;;24.60;39.20;;;;;;5046152;28;20584;-63
2022/08/08 07:18:55;;;;;;;3.03;0.82;;;24.60;39.10;;;;;;5049963;28;20124;-55
2022/08/08 07:21:29;;;;;;;3.30;1.05;;;24.70;39.10;;;;;;5047319;28;20131;-58
2022/08/08 07:24:01;;;;;;;1.00;0.43;;;24.70;39.10;;;;;;5045986;28;20040;-63
2022/08/08 07:26:32;;;;;;;1.38;0.25;;;24.70;39.10;;;;;;5045494;28;20049;-54
2022/08/08 07:29:00;;;;;;;5.07;0.68;;;24.70;39.10;;;;;;5044643;28;20053;-57
2022/08/08 07:31:28;;;;;;;0.30;0.20;;;24.70;39.00;;;;;;5044230;28;20072;-59
2022/08/08 07:33:56;;;;;;;5.03;1.52;;;24.80;39.00;;;;;;5045186;28;20041;-56
2022/08/08 07:36:25;;;;;;;2.67;0.60;;;24.80;38.90;;;;;;5049169;28;20040;-55
2022/08/08 07:38:53;;;;;;;2.67;0.65;;;24.80;38.80;;;;;;5045667;28;20045;-55
2022/08/08 07:41:23;;;;;;;2.20;0.30;;;24.90;38.80;;;;;;5045731;28;20045;-55
2022/08/08 07:43:54;;;;;;;1.40;0.40;;;24.90;38.70;;;;;;5045213;28;20056;-57
2022/08/08 07:46:21;;;;;;;2.05;0.55;;;24.90;38.60;;;;;;5042928;28;20069;-61
2022/08/08 07:48:49;;;;;;;4.50;0.20;;;24.90;38.50;;;;;;5044601;28;20041;-48
2022/08/08 07:51:17;;;;;;;2.05;0.40;;;25.00;38.40;;;;;;5043155;28;20032;-51
2022/08/08 07:53:59;;;;;;;6.65;0.47;;;25.00;38.40;;;;;;5028681;28;20232;-48
2022/08/08 07:56:27;;;;;;;2.15;0.45;;;25.00;38.40;;;;;;5041927;28;20061;-49
2022/08/08 07:58:54;;;;;;;1.48;0.30;;;25.00;38.40;;;;;;5048539;28;20037;-50
2022/08/08 08:01:25;;;;;;;12.73;0.43;;;25.10;38.30;;;;;;5027566;28;20047;-53
2022/08/08 08:04:03;;;;;;;0.98;0.50;;;25.10;38.20;;;;;;5043704;28;20489;-51
2022/08/08 08:06:34;;;;;;;4.60;0.38;;;25.20;38.30;;;;;;5048700;28;20122;-48
2022/08/08 08:09:09;;;;;;;4.72;0.35;;;25.20;38.30;;;;;;5050205;28;20087;-49
2022/08/08 08:11:44;;;;;;;3.58;0.45;;;25.20;38.20;;;;;;5045457;28;22027;-50
2022/08/08 08:14:14;;;;;;;;;;;25.20;38.10;;;;;;5048772;28;20078;-52
2022/08/08 08:16:46;;;;;;;2.42;0.30;;;25.20;38.10;;;;;;5048064;28;19932;-53
2022/08/08 08:19:16;;;;;;;5.13;1.45;;;25.20;38.10;;;;;;5055384;28;20122;-48
2022/08/08 08:21:46;;;;;;;4.70;0.45;;;25.30;38.00;;;;;;5045951;28;20040;-50
2022/08/08 08:24:21;;;;;;;4.53;0.40;;;25.30;37.90;;;;;;5047809;28;20045;-52
2022/08/08 08:26:48;;;;;;;2.88;0.25;;;25.30;37.80;;;;;;5047725;28;20132;-49
2022/08/08 08:29:15;;;;;;;0.90;0.17;;;25.40;37.80;;;;;;5048767;28;20130;-47
2022/08/08 08:31:45;;;;;;;1.35;0.30;;;25.40;37.70;;;;;;5046289;28;20071;-50
2022/08/08 08:34:13;;;;;;;2.58;0.20;;;25.40;37.60;;;;;;5048732;28;20489;-49
2022/08/08 08:36:41;;;;;;;4.10;0.30;;;25.50;37.50;;;;;;5046681;28;20049;-50
2022/08/08 08:39:08;;;;;;;8.35;0.57;;;25.60;37.60;;;;;;5051790;28;20056;-47
2022/08/08 08:41:43;;;;;;;1.85;0.63;;;25.60;37.50;;;;;;5047319;28;20095;-47
2022/08/08 08:44:10;;;;;;;1.40;0.20;;;25.60;37.50;;;;;;5047120;28;20123;-48
2022/08/08 08:46:39;;;;;;;1.73;0.20;;;25.60;37.30;;;;;;5047787;28;20090;-52
2022/08/08 08:49:09;;;;;;;0.95;0.60;;;25.70;37.20;;;;;;5055283;28;20053;-50
2022/08/08 08:51:41;;;;;;;1.80;0.82;;;25.70;37.10;;;;;;5039531;28;20098;-53
2022/08/08 08:54:10;;;;;;;0.32;0.20;;;25.70;36.90;;;;;;5051246;28;20067;-53
2022/08/08 08:56:39;;;;;;;3.13;0.10;;;25.80;36.90;;;;;;5047176;28;20136;-55
2022/08/08 08:59:13;;;;;;;6.43;0.52;;;25.90;36.70;;;;;;5047517;28;20449;-56
2022/08/08 09:01:44;;;;;;;4.65;0.20;;;25.90;36.50;;;;;;5049446;28;20131;-52
2022/08/08 09:04:22;;;;;;;2.78;0.22;;;25.90;36.50;;;;;;5047975;28;20037;-52
2022/08/08 09:06:52;;;;;;;3.65;0.20;;;26.00;36.50;;;;;;5047069;28;20045;-53
2022/08/08 09:09:23;;;;;;;1.27;0.20;;;26.00;36.50;;;;;;5048587;28;20038;-50
2022/08/08 09:11:53;;;;;;;1.80;0.35;;;26.00;36.90;;;;;;5047872;28;20513;-56
2022/08/08 09:14:24;;;;;;;1.75;0.35;;;26.10;36.30;;;;;;5048651;28;20470;-51
2022/08/08 09:16:53;;;;;;;2.13;0.20;;;26.10;36.20;;;;;;5052768;28;20036;-52
2022/08/08 09:19:21;;;;;;;2.05;0.20;;;26.20;36.20;;;;;;5046552;28;20095;-50
2022/08/08 09:21:50;;;;;;;2.28;0.10;;;26.20;36.10;;;;;;5030707;28;20087;-56
2022/08/08 09:24:18;;;;;;;0.82;0.20;;;26.20;35.90;;;;;;5046975;28;20509;-54
2022/08/08 09:26:57;;;;;;;1.00;0.20;;;26.30;35.80;;;;;;5047251;28;20063;-62
2022/08/08 09:29:27;;;;;;;1.67;0.28;;;26.40;35.60;;;;;;5046556;28;20157;-63
2022/08/08 09:32:04;;;;;;;4.10;0.20;;;26.40;35.50;;;;;;5045753;28;20756;-64
2022/08/08 09:34:41;;;;;;;0.68;0.17;;;26.50;35.60;;;;;;5043058;28;20038;-59
2022/08/08 09:37:18;;;;;;;1.80;0.25;;;26.50;35.60;;;;;;5045516;28;20079;-64
2022/08/08 09:39:57;;;;;;;2.67;1.25;;;26.50;36.00;;;;;;5046283;28;20033;-52
2022/08/08 09:42:32;;;;;;;4.18;0.40;;;26.60;35.20;;;;;;5045441;28;20048;-53
2022/08/08 09:45:05;;;;;;;2.28;0.10;;;26.60;34.80;;;;;;5045713;28;20473;-54
2022/08/08 09:47:35;;;;;;;6.18;0.40;;;26.60;34.50;;;;;;5046177;28;20048;-55
2022/08/08 09:50:06;;;;;;;6.55;0.20;;;26.70;34.40;;;;;;5047325;28;20441;-54
2022/08/08 09:52:35;;;;;;;1.75;0.28;;;26.70;34.30;;;;;;5045532;28;20080;-52
2022/08/08 09:55:03;;;;;;;6.13;0.68;;;26.80;34.20;;;;;;5042063;28;20083;-54
2022/08/08 09:57:35;;;;;;;3.72;0.50;;;26.80;34.20;;;;;;5045272;28;20076;-52
2022/08/08 10:00:07;;;;;;;2.50;1.00;;;26.90;34.10;;;;;;5044746;28;20045;-52
2022/08/08 10:02:46;;;;;;;1.65;0.60;;;26.90;34.00;;;;;;5048264;28;20656;-54
2022/08/08 10:05:15;;;;;;;4.50;0.45;;;26.90;34.00;;;;;;5049599;28;20414;-59
2022/08/08 10:07:56;;;;;;;1.17;0.25;;;27.00;34.00;;;;;;5047764;28;20052;-53
2022/08/08 10:10:26;;;;;;;2.47;1.02;;;27.10;34.00;;;;;;5050468;28;20053;-53
2022/08/08 10:12:55;;;;;;;2.47;0.20;;;27.10;34.00;;;;;;5047552;28;20106;-53
2022/08/08 10:15:24;;;;;;;1.75;0.20;;;27.10;33.90;;;;;;5047662;28;20125;-53
2022/08/08 10:17:53;;;;;;;1.75;0.30;;;27.20;33.80;;;;;;5048049;28;20041;-52
2022/08/08 10:20:22;;;;;;;2.63;0.13;;;27.20;33.70;;;;;;5046754;28;20390;-51
2022/08/08 10:22:58;;;;;;;1.05;0.30;;;27.30;33.60;;;;;;5048602;28;20041;-52
2022/08/08 10:25:26;;;;;;;3.40;0.10;;;27.30;33.40;;;;;;5044593;28;20059;-51
2022/08/08 10:28:06;;;;;;;2.08;0.20;;;27.40;33.30;;;;;;5054527;28;20049;-46
2022/08/08 10:30:34;;;;;;;1.35;0.10;;;27.40;33.00;;;;;;5044110;28;20052;-55
2022/08/08 10:33:01;;;;;;;0.85;0.20;;;27.40;32.80;;;;;;5046270;28;20464;-52
2022/08/08 10:35:31;;;;;;;4.03;0.20;;;27.50;32.80;;;;;;5045326;28;20135;-60
2022/08/08 10:38:00;;;;;;;3.70;0.20;;;27.50;32.70;;;;;;5054920;28;20072;-59
2022/08/08 10:40:29;;;;;;;2.55;0.10;;;27.60;32.70;;;;;;5042617;28;20064;-58
2022/08/08 10:42:58;;;;;;;0.82;0.20;;;27.70;32.60;;;;;;5047303;28;20071;-58
2022/08/08 10:45:26;;;;;;;0.52;0.13;;;27.70;32.60;;;;;;5040493;28;20033;-57
2022/08/08 10:47:57;;;;;;;7.53;0.40;;;27.80;32.60;;;;;;5047843;28;20531;-56
2022/08/08 10:50:32;;;;;;;1.25;0.88;;;27.80;32.50;;;;;;5042471;28;20037;-58
2022/08/08 10:53:04;;;;;;;0.73;0.10;;;27.90;32.50;;;;;;5046685;28;20057;-57
2022/08/08 10:55:31;;;;;;;1.90;0.20;;;27.90;32.50;;;;;;5046814;28;20124;-59
2022/08/08 10:58:02;;;;;;;2.95;0.10;;;28.00;32.40;;;;;;5050576;28;20047;-57
2022/08/08 11:00:30;;;;;;;0.55;0.10;;;28.10;32.10;;;;;;5046995;28;20041;-54
2022/08/08 11:03:10;;;;;;;1.17;0.55;;;28.10;32.10;;;;;;5059901;28;20062;-57
2022/08/08 11:05:43;;;;;;;5.63;0.30;;;28.20;31.70;;;;;;5047180;28;20123;-54
2022/08/08 11:08:20;;;;;;;1.40;0.25;;;28.20;31.50;;;;;;5053045;28;20071;-62
2022/08/08 11:10:47;;;;;;;0.47;0.10;;;28.30;31.40;;;;;;5039087;28;20060;-60
2022/08/08 11:13:20;;;;;;;1.95;0.20;;;28.30;31.50;;;;;;5045588;28;20432;-60
2022/08/08 11:15:48;;;;;;;5.47;0.25;;;28.40;31.50;;;;;;5046916;28;20056;-59
2022/08/08 11:18:17;;;;;;;0.82;0.30;;;28.50;31.40;;;;;;5049564;28;20130;-57
2022/08/08 11:20:45;;;;;;;6.43;0.20;;;28.50;31.30;;;;;;5052555;28;20045;-59
2022/08/08 11:23:14;;;;;;;1.35;0.20;;;28.60;31.10;;;;;;5060065;28;20037;-61
2022/08/08 11:25:42;;;;;;;0.85;0.40;;;28.60;30.90;;;;;;5047232;28;20120;-56
2022/08/08 11:28:15;;;;;;;4.30;0.20;;;28.70;30.70;;;;;;5064486;28;20040;-60
2022/08/08 11:30:43;;;;;;;1.77;0.30;;;28.70;30.00;;;;;;5041159;28;20115;-58
2022/08/08 11:33:11;;;;;;;0.52;0.10;;;28.80;30.30;;;;;;5049371;28;20122;-61
2022/08/08 11:35:42;;;;;;;8.52;0.10;;;28.80;30.40;;;;;;5050534;28;20150;-61
2022/08/08 11:38:09;;;;;;;2.25;0.47;;;28.90;30.10;;;;;;5055490;28;20049;-63
2022/08/08 11:40:36;;;;;;;0.45;0.20;;;29.00;30.10;;;;;;5048737;28;20047;-62
2022/08/08 11:43:04;;;;;;;3.90;0.30;;;29.10;30.00;;;;;;5050892;28;20045;-62
2022/08/08 11:45:31;;;;;;;5.95;0.32;;;29.10;30.00;;;;;;5050422;28;20041;-61
2022/08/08 11:47:59;;;;;;;0.32;0.10;;;29.20;29.90;;;;;;5055585;28;20436;-57
2022/08/08 11:50:26;;;;;;;3.67;0.20;;;29.20;29.70;;;;;;5050307;28;20051;-58
2022/08/08 11:52:56;;;;;;;2.15;0.50;;;29.30;29.80;;;;;;5065186;28;20860;-56
2022/08/08 11:55:26;;;;;;;1.55;0.55;;;29.40;30.00;;;;;;5053025;28;20122;-58
2022/08/08 11:58:01;;;;;;;0.80;0.20;;;29.40;29.90;;;;;;5061143;28;20037;-60
2022/08/08 12:00:29;;;;;;;0.10;0.10;;;29.40;29.70;;;;;;5041155;28;20047;-58
2022/08/08 12:02:57;;;;;;;2.60;0.20;;;29.50;29.70;;;;;;5047655;28;20116;-59
2022/08/08 12:05:35;;;;;;;4.22;0.63;;;29.60;29.90;;;;;;5044521;28;20489;-61
2022/08/08 12:08:04;;;;;;;0.88;0.10;;;29.60;29.90;;;;;;5050157;28;20049;-61
2022/08/08 12:10:32;;;;;;;0.30;0.10;;;29.70;30.00;;;;;;5048585;28;20535;-59
2022/08/08 12:13:04;;;;;;;2.10;0.13;;;29.70;30.00;;;;;;5050147;28;20135;-60
2022/08/08 12:15:34;;;;;;;0.30;0.10;;;29.80;30.00;;;;;;5050311;28;20083;-61
2022/08/08 12:18:12;;;;;;;0.28;0.22;;;29.80;29.60;;;;;;5050358;28;20037;-57
2022/08/08 12:20:40;;;;;;;0.45;0.20;;;29.90;29.70;;;;;;5044313;28;20045;-61
2022/08/08 12:23:09;;;;;;;1.15;0.20;;;29.90;29.70;;;;;;5048290;28;20048;-62
2022/08/08 12:25:37;;;;;;;0.80;0.20;;;30.00;29.70;;;;;;5051221;28;20041;-63
2022/08/08 12:28:12;;;;;;;0.10;0.05;;;30.00;29.60;;;;;;5049774;28;20512;-58
2022/08/08 12:30:40;;;;;;;4.65;0.30;;;30.00;29.40;;;;;;5049926;28;20037;-59
2022/08/08 12:33:17;;;;;;;7.10;0.30;;;30.10;29.40;;;;;;5049728;28;20463;-63
2022/08/08 12:35:44;;;;;;;1.00;0.10;;;30.20;29.40;;;;;;5049564;28;20501;-58
2022/08/08 12:38:13;;;;;;;0.68;0.10;;;30.20;29.00;;;;;;5049701;28;20060;-57
2022/08/08 12:40:43;;;;;;;0.35;0.10;;;30.20;29.10;;;;;;5046832;28;20048;-56
2022/08/08 12:43:11;;;;;;;3.00;0.20;;;30.30;29.10;;;;;;5049212;28;20524;-57
2022/08/08 12:45:40;;;;;;;1.30;0.10;;;30.30;28.90;;;;;;5050010;28;20044;-62
2022/08/08 12:48:16;;;;;;;1.27;0.40;;;30.40;28.90;;;;;;5045071;28;20111;-59
2022/08/08 12:50:46;;;;;;;0.10;0.10;;;30.40;29.00;;;;;;5049058;28;20576;-57
2022/08/08 12:53:27;;;;;;;1.95;0.10;;;30.50;28.90;;;;;;5049667;28;20060;-56
2022/08/08 12:56:00;;;;;;;2.33;0.20;;;30.50;28.90;;;;;;5034305;28;20046;-59
2022/08/08 12:58:29;;;;;;;0.20;0.10;;;30.60;28.90;;;;;;5025649;28;20048;-57
2022/08/08 13:01:07;;;;;;;3.00;0.10;;;30.60;28.80;;;;;;5053160;28;20045;-54
2022/08/08 13:03:34;;;;;;;3.85;0.50;;;30.60;28.40;;;;;;5046077;28;20045;-56
2022/08/08 13:06:08;;;;;;;1.58;0.10;;;30.60;28.40;;;;;;5049237;28;20068;-59
2022/08/08 13:08:43;;;;;;;0.20;0.20;;;30.70;28.60;;;;;;5049332;28;20053;-54
2022/08/08 13:11:22;;;;;;;0.50;0.10;;;30.70;28.30;;;;;;5048670;28;20077;-57
2022/08/08 13:13:52;;;;;;;2.85;0.10;;;30.80;28.20;;;;;;5049109;28;20456;-58
2022/08/08 13:16:20;;;;;;;0.20;0.10;;;30.80;28.30;;;;;;5040916;28;20425;-54
2022/08/08 13:18:48;;;;;;;3.35;0.20;;;30.90;28.20;;;;;;5047641;28;20116;-50
2022/08/08 13:21:16;;;;;;;0.28;0.10;;;30.90;28.30;;;;;;5048698;28;20790;-50
2022/08/08 13:23:44;;;;;;;0.57;0.10;;;30.90;28.30;;;;;;5049030;28;20041;-53
2022/08/08 13:26:11;;;;;;;0.45;0.10;;;31.00;28.30;;;;;;5048344;28;20041;-53
2022/08/08 13:28:38;;;;;;;3.90;0.10;;;31.00;28.30;;;;;;5048856;28;20470;-50
2022/08/08 13:31:10;;;;;;;0.10;0.10;;;31.00;28.00;;;;;;5054669;28;20143;-51